Time;durP1;ratioP1;P1;durP2;ratioP2;P2;SDS_P1;SDS_P2;PMS_P1;PMS_P2;Temp;Humidity;BMP_temperature;BMP_pressure;BME280_temperature;BME280_humidity;BME280_pressure;Samples;Min_cycle;Max_cycle;Signal;HPM_P1;HPM_P2
2022/12/12 00:01:28;;;;;;;17.10;7.90;;;-0.30;99.90;;;;;;4995510;28;20026;-93
2022/12/12 00:03:56;;;;;;;17.70;7.65;;;-0.40;99.90;;;;;;4995521;28;20046;-94
2022/12/12 00:06:23;;;;;;;15.07;7.32;;;-0.40;99.90;;;;;;4991689;28;20026;-94
2022/12/12 00:08:49;;;;;;;18.70;8.30;;;-0.30;99.90;;;;;;4993344;28;20084;-93
2022/12/12 00:11:15;;;;;;;17.73;8.05;;;-0.30;99.90;;;;;;4995340;28;20031;-92
2022/12/12 00:13:41;;;;;;;15.43;7.07;;;-0.30;99.90;;;;;;4994993;28;20056;-92
2022/12/12 00:16:08;;;;;;;16.42;7.13;;;-0.40;99.90;;;;;;4995022;28;20026;-92
2022/12/12 00:18:38;;;;;;;13.90;5.82;;;-0.40;99.90;;;;;;4994923;28;20062;-92
2022/12/12 00:21:07;;;;;;;12.88;5.55;;;-0.40;99.90;;;;;;4995163;28;20018;-93
2022/12/12 00:23:35;;;;;;;12.13;6.10;;;-0.50;99.90;;;;;;4995741;28;20130;-91
2022/12/12 00:26:06;;;;;;;16.77;7.18;;;-0.50;99.90;;;;;;4996632;28;20412;-93
2022/12/12 00:28:32;;;;;;;15.38;6.35;;;-0.50;99.90;;;;;;4995094;28;20022;-93
2022/12/12 00:30:58;;;;;;;15.40;6.82;;;-0.50;99.90;;;;;;4994954;28;20603;-92
2022/12/12 00:33:26;;;;;;;12.70;6.28;;;-0.50;99.90;;;;;;4994746;28;20508;-91
2022/12/12 00:35:53;;;;;;;14.45;6.13;;;-0.60;99.90;;;;;;4994782;28;20031;-92
2022/12/12 00:38:21;;;;;;;15.13;6.70;;;-0.70;99.90;;;;;;4995139;28;20168;-93
2022/12/12 00:40:47;;;;;;;13.80;5.75;;;-0.70;99.90;;;;;;4994453;28;20069;-91
2022/12/12 00:43:13;;;;;;;15.23;7.00;;;-0.80;99.90;;;;;;4994939;28;20038;-92
2022/12/12 00:45:39;;;;;;;15.73;6.32;;;-0.80;99.90;;;;;;4995228;28;20501;-91
2022/12/12 00:48:06;;;;;;;18.45;7.00;;;-0.80;99.90;;;;;;5000262;28;20042;-92
2022/12/12 00:50:34;;;;;;;23.92;7.72;;;-0.80;99.90;;;;;;4995515;28;20026;-91
2022/12/12 00:53:00;;;;;;;17.65;7.25;;;-0.80;99.90;;;;;;4993764;28;20034;-91
2022/12/12 00:55:27;;;;;;;14.35;6.15;;;-0.80;99.90;;;;;;4994958;28;20101;-92
2022/12/12 00:57:53;;;;;;;14.70;6.70;;;-0.90;99.90;;;;;;4994022;28;20033;-92
2022/12/12 01:00:19;;;;;;;14.95;6.18;;;-0.90;99.90;;;;;;4995222;28;20384;-93
2022/12/12 01:02:46;;;;;;;12.00;5.47;;;-1.00;99.90;;;;;;4981970;28;20027;-93
2022/12/12 01:05:14;;;;;;;11.73;5.75;;;-1.00;99.90;;;;;;4992482;28;20059;-92
2022/12/12 01:07:41;;;;;;;12.48;5.55;;;-1.00;99.90;;;;;;4995328;28;20050;-91
2022/12/12 01:10:08;;;;;;;9.68;4.10;;;-1.00;99.90;;;;;;4995753;28;20033;-90
2022/12/12 01:12:35;;;;;;;10.75;5.00;;;-1.10;99.90;;;;;;4994723;28;20048;-91
2022/12/12 01:15:02;;;;;;;9.27;4.53;;;-1.10;99.90;;;;;;4978111;28;20098;-91
2022/12/12 01:17:28;;;;;;;11.18;5.40;;;-1.10;99.90;;;;;;4993212;28;20046;-91
2022/12/12 01:19:54;;;;;;;10.48;5.28;;;-1.10;99.90;;;;;;4993053;28;20088;-91
2022/12/12 01:22:22;;;;;;;10.77;5.20;;;-1.20;99.90;;;;;;4992864;28;20026;-92
2022/12/12 01:24:47;;;;;;;13.70;5.95;;;-1.20;99.90;;;;;;4993237;28;20476;-92
2022/12/12 01:27:13;;;;;;;16.48;6.43;;;-1.10;99.90;;;;;;4993054;28;20137;-93
2022/12/12 01:29:40;;;;;;;18.65;7.20;;;-1.10;99.90;;;;;;4992532;28;20085;-92
2022/12/12 01:32:07;;;;;;;17.15;7.25;;;-1.00;99.90;;;;;;4992695;28;20034;-92
2022/12/12 01:34:33;;;;;;;17.65;7.75;;;-1.10;99.90;;;;;;4992773;28;20109;-92
2022/12/12 01:36:58;;;;;;;19.27;7.07;;;-1.20;99.90;;;;;;4993086;28;20050;-92
2022/12/12 01:39:24;;;;;;;11.52;5.38;;;-1.30;99.90;;;;;;4992666;28;20030;-92
2022/12/12 01:41:50;;;;;;;12.25;5.85;;;-1.30;99.90;;;;;;4992879;28;20023;-92
2022/12/12 01:44:37;;;;;;;12.55;5.75;;;-1.30;99.90;;;;;;4993166;28;20026;-92
2022/12/12 01:47:03;;;;;;;11.05;5.22;;;-1.40;99.90;;;;;;4990812;28;20554;-91
2022/12/12 01:49:29;;;;;;;11.52;4.70;;;-1.50;99.90;;;;;;4993059;28;20026;-91
2022/12/12 01:51:59;;;;;;;14.43;5.90;;;-1.50;99.90;;;;;;4992843;28;20018;-91
2022/12/12 01:54:29;;;;;;;13.35;5.80;;;-1.50;99.90;;;;;;5004241;28;20033;-90
2022/12/12 01:56:57;;;;;;;;;;;-1.50;99.90;;;;;;5006917;28;20050;-90
2022/12/12 01:59:24;;;;;;;17.25;6.15;;;-1.40;99.90;;;;;;4992833;28;19917;-91
2022/12/12 02:01:51;;;;;;;17.30;7.05;;;-1.40;99.90;;;;;;4991756;28;20056;-91
2022/12/12 02:04:18;;;;;;;15.38;6.95;;;-1.40;99.90;;;;;;4992280;28;20408;-87
2022/12/12 02:06:44;;;;;;;13.98;6.10;;;-1.50;99.90;;;;;;4992293;28;20046;-90
2022/12/12 02:09:12;;;;;;;11.73;5.30;;;-1.50;99.90;;;;;;4992412;28;20054;-91
2022/12/12 02:11:52;;;;;;;10.77;4.85;;;-1.40;99.90;;;;;;4993011;28;20025;-90
2022/12/12 02:14:25;;;;;;;11.40;5.17;;;-1.50;99.90;;;;;;4991858;28;20049;-90
2022/12/12 02:17:04;;;;;;;12.90;5.05;;;-1.50;99.90;;;;;;4991328;28;20274;-91
2022/12/12 02:19:36;;;;;;;10.00;4.88;;;-1.50;99.90;;;;;;4992210;28;20455;-91
2022/12/12 02:22:24;;;;;;;12.10;5.57;;;-1.50;99.90;;;;;;4992735;28;20030;-91
2022/12/12 02:25:08;;;;;;;11.05;5.53;;;-1.50;99.90;;;;;;4993159;28;20157;-91
2022/12/12 02:27:55;;;;;;;11.73;5.57;;;-1.50;99.90;;;;;;4993369;28;20034;-91
2022/12/12 02:30:23;;;;;;;13.32;5.78;;;-1.60;99.90;;;;;;4992468;28;20105;-91
2022/12/12 02:33:06;;;;;;;10.10;5.15;;;-1.60;99.90;;;;;;4992611;28;20093;-91
2022/12/12 02:35:48;;;;;;;13.23;5.82;;;-1.60;99.90;;;;;;5000487;28;20015;-92
2022/12/12 02:38:49;;;;;;;13.93;5.85;;;-1.60;99.90;;;;;;5007125;28;20022;-91
2022/12/12 02:41:15;;;;;;;;;;;-1.60;99.90;;;;;;4982286;28;20034;-89
2022/12/12 02:43:40;;;;;;;24.52;6.88;;;-1.60;99.90;;;;;;4991740;28;19913;-90
2022/12/12 02:46:16;;;;;;;18.98;6.70;;;-1.60;99.90;;;;;;4991877;28;20030;-91
2022/12/12 02:49:12;;;;;;;21.50;7.40;;;-1.60;99.90;;;;;;4991612;28;20065;-90
2022/12/12 02:51:39;;;;;;;22.33;7.80;;;-1.50;99.90;;;;;;4994811;28;20050;-90
2022/12/12 02:54:15;;;;;;;22.20;7.90;;;-1.50;99.90;;;;;;4993031;28;20046;-89
2022/12/12 02:56:44;;;;;;;17.17;6.55;;;-1.40;99.90;;;;;;4993057;28;20037;-89
2022/12/12 02:59:20;;;;;;;16.33;6.20;;;-1.40;99.90;;;;;;4991198;28;20436;-92
2022/12/12 03:02:21;;;;;;;16.02;6.53;;;-1.40;99.90;;;;;;4991609;28;20030;-89
2022/12/12 03:08:07;;;;;;;14.20;6.43;;;-1.30;99.90;;;;;;4991978;28;20137;-89
2022/12/12 03:10:47;;;;;;;12.45;5.63;;;-1.30;99.90;;;;;;4990722;28;20034;-89
2022/12/12 03:13:38;;;;;;;11.50;5.00;;;-1.30;99.90;;;;;;4993070;28;20085;-90
2022/12/12 03:16:08;;;;;;;11.80;5.82;;;-1.30;99.90;;;;;;4995423;28;20191;-89
2022/12/12 03:18:57;;;;;;;13.07;5.53;;;-1.30;99.90;;;;;;4995576;28;20081;-91
2022/12/12 03:21:26;;;;;;;13.18;5.57;;;-1.30;99.90;;;;;;4995447;28;20280;-89
2022/12/12 03:23:58;;;;;;;14.32;6.40;;;-1.40;99.90;;;;;;4995036;28;20036;-91
2022/12/12 03:26:38;;;;;;;15.45;6.50;;;-1.50;99.90;;;;;;4994913;28;20097;-91
2022/12/12 03:29:09;;;;;;;15.80;6.45;;;-1.50;99.90;;;;;;4995260;28;20531;-90
2022/12/12 03:31:39;;;;;;;14.57;6.70;;;-1.50;99.90;;;;;;4995424;28;20453;-89
2022/12/12 03:34:23;;;;;;;14.40;6.38;;;-1.50;99.90;;;;;;4994502;28;20042;-90
2022/12/12 03:36:59;;;;;;;14.77;5.85;;;-1.50;99.90;;;;;;4994113;28;20157;-91
2022/12/12 03:39:32;;;;;;;11.25;5.55;;;-1.50;99.90;;;;;;4994421;28;20472;-91
2022/12/12 03:42:11;;;;;;;12.82;4.88;;;-1.50;99.90;;;;;;4994599;28;20026;-90
2022/12/12 03:45:06;;;;;;;13.73;5.40;;;-1.50;99.90;;;;;;4994488;28;20028;-89
2022/12/12 03:47:39;;;;;;;9.90;4.82;;;-1.50;99.90;;;;;;4988881;28;20042;-90
2022/12/12 03:50:18;;;;;;;11.65;5.38;;;-1.50;99.90;;;;;;4994985;28;20031;-89
2022/12/12 03:53:06;;;;;;;10.38;5.05;;;-1.50;99.90;;;;;;4994195;28;20038;-91
2022/12/12 03:56:11;;;;;;;10.25;5.22;;;-1.50;99.90;;;;;;4993923;28;20061;-89
2022/12/12 03:58:53;;;;;;;9.15;4.60;;;-1.60;99.90;;;;;;4994322;28;20436;-89
2022/12/12 04:01:22;;;;;;;11.23;5.20;;;-1.60;99.90;;;;;;4994529;28;20018;-88
2022/12/12 04:04:19;;;;;;;11.95;5.70;;;-1.70;99.90;;;;;;4994299;28;20034;-91
2022/12/12 04:06:53;;;;;;;14.00;6.00;;;-1.60;99.90;;;;;;4994934;28;20505;-90
2022/12/12 04:15:20;;;;;;;8.48;4.43;;;-1.70;99.90;;;;;;4996285;28;20122;-90
2022/12/12 04:18:04;;;;;;;11.43;5.28;;;-1.70;99.90;;;;;;4994165;28;20042;-89
2022/12/12 04:23:51;;;;;;;9.25;4.40;;;-1.70;99.90;;;;;;4995467;28;20034;-90
2022/12/12 04:26:38;;;;;;;10.98;4.57;;;-1.70;99.90;;;;;;4993979;28;20045;-90
2022/12/12 04:29:43;;;;;;;9.63;4.68;;;-1.70;99.90;;;;;;4995210;28;20031;-90
2022/12/12 04:32:32;;;;;;;8.63;4.00;;;-1.70;99.90;;;;;;4986653;28;20503;-90
2022/12/12 04:35:18;;;;;;;9.73;4.97;;;-1.80;99.90;;;;;;4993309;28;20042;-90
2022/12/12 04:37:52;;;;;;;10.23;4.75;;;-1.80;99.90;;;;;;4993533;28;20069;-90
2022/12/12 04:40:26;;;;;;;9.45;3.92;;;-1.80;99.90;;;;;;4993341;28;20062;-90
2022/12/12 04:43:28;;;;;;;10.40;4.97;;;-1.70;99.90;;;;;;4993587;28;20050;-91
2022/12/12 04:45:57;;;;;;;8.60;4.05;;;-1.70;99.90;;;;;;4992821;28;20082;-90
2022/12/12 04:48:50;;;;;;;10.70;4.70;;;-1.80;99.90;;;;;;4993355;28;20649;-90
2022/12/12 04:51:25;;;;;;;7.82;4.13;;;-1.80;99.90;;;;;;4993674;28;20114;-90
2022/12/12 04:54:09;;;;;;;8.07;3.95;;;-1.80;99.90;;;;;;4993416;28;20034;-89
2022/12/12 04:56:37;;;;;;;11.77;4.22;;;-1.80;99.90;;;;;;4993044;28;20480;-90
2022/12/12 04:59:04;;;;;;;10.65;5.47;;;-1.80;99.90;;;;;;4993731;28;20042;-89
2022/12/12 05:01:46;;;;;;;9.45;4.18;;;-1.90;99.90;;;;;;4997546;28;20449;-89
2022/12/12 05:04:50;;;;;;;9.23;3.92;;;-1.90;99.90;;;;;;4996177;28;20026;-88
2022/12/12 05:07:25;;;;;;;9.55;4.05;;;-1.90;99.90;;;;;;4992410;28;20034;-90
2022/12/12 05:09:51;;;;;;;10.77;4.50;;;-2.00;99.90;;;;;;4994158;28;20035;-89
2022/12/12 05:12:17;;;;;;;9.93;4.68;;;-2.00;99.90;;;;;;4992680;28;20041;-90
2022/12/12 05:14:42;;;;;;;10.68;4.60;;;-2.00;99.90;;;;;;4993292;28;20132;-88
2022/12/12 05:17:13;;;;;;;10.63;4.93;;;-2.00;99.90;;;;;;4993199;28;20050;-88
2022/12/12 05:19:38;;;;;;;10.70;4.95;;;-2.10;99.90;;;;;;4993083;28;20133;-89
2022/12/12 05:22:04;;;;;;;11.05;4.85;;;-2.10;99.90;;;;;;4993029;28;20121;-88
2022/12/12 05:24:30;;;;;;;10.73;5.38;;;-2.10;99.90;;;;;;4992651;28;20038;-88
2022/12/12 05:26:59;;;;;;;12.30;5.63;;;-2.10;99.90;;;;;;4993196;28;20469;-90
2022/12/12 05:29:25;;;;;;;12.15;5.20;;;-2.10;99.90;;;;;;4992054;28;20125;-89
2022/12/12 05:31:51;;;;;;;12.43;5.65;;;-2.10;99.90;;;;;;4993606;28;20536;-90
2022/12/12 05:34:16;;;;;;;14.25;5.57;;;-2.10;99.90;;;;;;4993191;28;20034;-90
2022/12/12 05:36:42;;;;;;;14.68;6.38;;;-2.20;99.90;;;;;;4991849;28;20092;-90
2022/12/12 05:39:08;;;;;;;10.68;4.93;;;-2.20;99.90;;;;;;4992207;28;20027;-90
2022/12/12 05:41:33;;;;;;;13.25;5.22;;;-2.20;99.90;;;;;;4992121;28;20096;-89
2022/12/12 05:43:59;;;;;;;16.67;5.90;;;-2.20;99.90;;;;;;4992411;28;20038;-90
2022/12/12 05:46:25;;;;;;;15.25;6.40;;;-2.30;99.90;;;;;;4992800;28;20076;-90
2022/12/12 05:48:50;;;;;;;18.70;6.50;;;-2.40;99.90;;;;;;4993038;28;20518;-89
2022/12/12 05:51:19;;;;;;;19.63;7.15;;;-2.50;99.90;;;;;;4997585;28;20022;-91
2022/12/12 05:53:46;;;;;;;23.88;7.65;;;-2.60;99.90;;;;;;5015787;28;20049;-91
2022/12/12 05:56:12;;;;;;;20.77;6.25;;;-2.60;99.90;;;;;;5016837;28;20010;-91
2022/12/12 05:58:41;;;;;;;22.05;7.15;;;-2.60;99.90;;;;;;5016222;28;20034;-88
2022/12/12 06:01:07;;;;;;;19.48;6.95;;;-2.70;99.90;;;;;;5015322;28;20057;-88
2022/12/12 06:03:33;;;;;;;20.08;6.68;;;-2.70;99.90;;;;;;4998665;28;20031;-91
2022/12/12 06:05:59;;;;;;;22.77;6.88;;;-2.70;99.90;;;;;;4993833;28;20101;-90
2022/12/12 06:08:25;;;;;;;15.10;6.65;;;-2.70;99.90;;;;;;4993282;28;20045;-90
2022/12/12 06:10:50;;;;;;;21.08;6.63;;;-2.70;99.90;;;;;;4992016;28;20023;-90
2022/12/12 06:13:16;;;;;;;26.88;7.72;;;-2.70;99.90;;;;;;4992811;28;20042;-88
2022/12/12 06:15:42;;;;;;;22.17;7.45;;;-2.70;99.90;;;;;;4994366;28;20376;-90
2022/12/12 06:18:08;;;;;;;43.83;8.93;;;-2.70;99.90;;;;;;4993423;28;20444;-90
2022/12/12 06:20:35;;;;;;;25.10;7.88;;;-2.70;99.90;;;;;;4993963;28;20030;-90
2022/12/12 06:23:00;;;;;;;22.52;7.43;;;-2.80;99.90;;;;;;4995168;28;20068;-88
2022/12/12 06:25:26;;;;;;;27.85;9.05;;;-2.80;99.90;;;;;;5010396;28;20006;-90
2022/12/12 06:27:52;;;;;;;30.42;8.30;;;-2.80;99.90;;;;;;5013466;28;20476;-90
2022/12/12 06:30:17;;;;;;;31.83;11.50;;;-2.80;99.90;;;;;;4995074;28;20089;-90
2022/12/12 06:32:43;;;;;;;28.20;9.50;;;-2.80;99.90;;;;;;4991806;28;20030;-91
2022/12/12 06:35:10;;;;;;;26.90;7.95;;;-2.80;99.90;;;;;;4992671;28;20027;-89
2022/12/12 06:37:35;;;;;;;24.05;8.10;;;-2.80;99.90;;;;;;4991060;28;20022;-90
2022/12/12 06:40:01;;;;;;;28.35;8.30;;;-2.80;99.90;;;;;;4991227;28;20034;-89
2022/12/12 06:42:27;;;;;;;23.95;7.55;;;-2.80;99.90;;;;;;4990837;28;20037;-89
2022/12/12 06:44:53;;;;;;;37.05;8.65;;;-2.90;99.90;;;;;;4991050;28;20026;-89
2022/12/12 06:47:18;;;;;;;30.65;8.63;;;-2.80;99.90;;;;;;4990372;28;20045;-90
2022/12/12 06:49:44;;;;;;;36.13;9.25;;;-2.90;99.90;;;;;;4990745;28;20037;-90
2022/12/12 06:52:09;;;;;;;103.78;10.13;;;-2.90;99.90;;;;;;4991064;28;20031;-89
2022/12/12 06:54:35;;;;;;;29.60;9.00;;;-2.90;99.90;;;;;;4983477;28;20033;-91
2022/12/12 06:57:01;;;;;;;25.20;7.68;;;-3.00;99.90;;;;;;4992444;28;20073;-91
2022/12/12 06:59:28;;;;;;;51.47;9.38;;;-3.00;99.90;;;;;;4993404;28;20038;-90
2022/12/12 07:01:57;;;;;;;80.18;8.55;;;-3.10;99.90;;;;;;4988783;28;20497;-91
2022/12/12 07:04:23;;;;;;;35.03;8.25;;;-3.10;99.90;;;;;;4991723;28;20027;-91
2022/12/12 07:06:48;;;;;;;35.28;8.77;;;-3.20;99.90;;;;;;4990564;28;20134;-91
2022/12/12 07:09:14;;;;;;;22.20;7.97;;;-3.20;99.90;;;;;;4991784;28;20089;-91
2022/12/12 07:11:43;;;;;;;28.23;7.55;;;-3.20;99.90;;;;;;4992278;28;20109;-89
2022/12/12 07:14:10;;;;;;;42.67;8.88;;;-3.20;99.90;;;;;;4991105;28;20471;-91
2022/12/12 07:16:36;;;;;;;27.33;7.15;;;-3.10;99.90;;;;;;4992353;28;20102;-92
2022/12/12 07:19:03;;;;;;;22.58;7.25;;;-3.20;99.90;;;;;;5001361;28;20054;-91
2022/12/12 07:21:28;;;;;;;26.38;7.55;;;-3.20;99.90;;;;;;5001482;28;20033;-90
2022/12/12 07:23:55;;;;;;;20.95;7.72;;;-3.10;99.90;;;;;;5000503;28;20424;-91
2022/12/12 07:26:22;;;;;;;23.98;7.80;;;-3.10;99.90;;;;;;4998217;28;20088;-91
2022/12/12 07:28:49;;;;;;;21.70;7.43;;;-3.10;99.90;;;;;;4995610;28;20339;-90
2022/12/12 07:31:17;;;;;;;29.45;8.27;;;-3.10;99.90;;;;;;4992164;28;20034;-90
2022/12/12 07:33:43;;;;;;;44.17;8.27;;;-3.00;99.90;;;;;;4977585;28;20030;-90
2022/12/12 07:36:10;;;;;;;24.30;7.78;;;-3.10;99.90;;;;;;4994471;28;20014;-90
2022/12/12 07:38:39;;;;;;;49.25;8.40;;;-3.10;99.90;;;;;;4990006;28;20030;-89
2022/12/12 07:41:07;;;;;;;42.53;9.10;;;-3.20;99.90;;;;;;4991950;28;20022;-90
2022/12/12 07:43:35;;;;;;;37.50;8.38;;;-3.20;99.90;;;;;;4990644;28;20082;-90
2022/12/12 07:46:01;;;;;;;45.15;9.10;;;-3.20;99.90;;;;;;4990216;28;20093;-91
2022/12/12 07:48:27;;;;;;;34.90;9.35;;;-3.20;99.90;;;;;;4991353;28;20053;-90
2022/12/12 07:50:53;;;;;;;32.58;9.65;;;-3.20;99.90;;;;;;4992400;28;20483;-90
2022/12/12 07:53:19;;;;;;;29.48;10.30;;;-3.20;99.90;;;;;;4993804;28;20049;-91
2022/12/12 07:55:45;;;;;;;27.13;8.10;;;-3.20;99.90;;;;;;4991736;28;20085;-91
2022/12/12 07:58:10;;;;;;;57.90;8.48;;;-3.20;99.90;;;;;;4991817;28;20058;-89
2022/12/12 08:00:36;;;;;;;91.72;11.50;;;-3.20;99.90;;;;;;4993712;28;20113;-92
2022/12/12 08:03:01;;;;;;;44.90;10.05;;;-3.30;99.90;;;;;;4995450;28;20034;-92
2022/12/12 08:05:28;;;;;;;91.68;10.35;;;-3.30;99.90;;;;;;4994887;28;20034;-91
2022/12/12 08:07:53;;;;;;;34.97;9.63;;;-3.30;99.90;;;;;;4995390;28;20037;-91
2022/12/12 08:10:19;;;;;;;28.77;9.23;;;-3.30;99.90;;;;;;4995153;28;20030;-92
2022/12/12 08:12:45;;;;;;;28.83;8.75;;;-3.40;99.90;;;;;;4996603;28;20037;-91
2022/12/12 08:15:15;;;;;;;29.38;7.95;;;-3.40;99.90;;;;;;4995566;28;20114;-92
2022/12/12 08:17:41;;;;;;;27.05;8.02;;;-3.40;99.90;;;;;;4995543;28;20038;-91
2022/12/12 08:20:07;;;;;;;27.27;8.00;;;-3.40;99.90;;;;;;4995468;28;20546;-91
2022/12/12 08:22:33;;;;;;;34.13;8.60;;;-3.40;99.90;;;;;;4994312;28;20041;-91
2022/12/12 08:24:59;;;;;;;31.38;8.55;;;-3.50;99.90;;;;;;4993728;28;20022;-90
2022/12/12 08:27:24;;;;;;;33.25;9.50;;;-3.50;99.90;;;;;;4994495;28;20037;-90
2022/12/12 08:29:52;;;;;;;44.78;9.23;;;-3.60;99.90;;;;;;4993046;28;20030;-90
2022/12/12 08:32:18;;;;;;;36.25;9.30;;;-3.60;99.90;;;;;;4994297;28;20042;-90
2022/12/12 08:34:44;;;;;;;30.40;10.25;;;-3.60;99.90;;;;;;4994409;28;20150;-91
2022/12/12 08:37:09;;;;;;;53.05;10.27;;;-3.70;99.90;;;;;;4994276;28;20062;-90
2022/12/12 08:39:36;;;;;;;69.07;10.48;;;-3.70;99.90;;;;;;4997756;28;20031;-91
2022/12/12 08:42:02;;;;;;;41.47;10.70;;;-3.70;99.90;;;;;;4994659;28;20026;-90
2022/12/12 08:44:28;;;;;;;38.90;10.30;;;-3.80;99.90;;;;;;4994402;28;20033;-90
2022/12/12 08:46:54;;;;;;;32.47;10.57;;;-3.70;99.90;;;;;;4994319;28;20030;-91
2022/12/12 08:49:19;;;;;;;29.05;9.93;;;-3.70;99.90;;;;;;4994408;28;20053;-90
2022/12/12 08:51:45;;;;;;;33.55;9.88;;;-3.70;99.90;;;;;;4995443;28;20034;-89
2022/12/12 08:54:12;;;;;;;39.45;9.18;;;-3.70;99.90;;;;;;4989429;28;20042;-89
2022/12/12 08:56:39;;;;;;;59.95;10.35;;;-3.70;99.90;;;;;;4991393;28;20033;-90
2022/12/12 08:59:05;;;;;;;41.03;10.07;;;-3.70;99.90;;;;;;4993040;28;20244;-89
2022/12/12 09:01:31;;;;;;;30.40;9.88;;;-3.80;99.90;;;;;;4989274;28;20512;-90
2022/12/12 09:03:57;;;;;;;36.25;10.63;;;-3.70;99.90;;;;;;4985448;28;20022;-89
2022/12/12 09:06:24;;;;;;;38.22;10.52;;;-3.70;99.90;;;;;;4993325;28;20129;-89
2022/12/12 09:08:50;;;;;;;31.60;9.88;;;-3.70;99.90;;;;;;4993570;28;20599;-90
2022/12/12 09:11:17;;;;;;;44.03;13.25;;;-3.60;99.90;;;;;;4994887;28;20109;-89
2022/12/12 09:13:43;;;;;;;44.22;14.98;;;-3.60;99.90;;;;;;4992721;28;20038;-89
2022/12/12 09:16:09;;;;;;;40.13;14.40;;;-3.50;99.90;;;;;;4993603;28;20077;-89
2022/12/12 09:18:36;;;;;;;50.90;17.55;;;-3.60;99.90;;;;;;4994589;28;20050;-89
2022/12/12 09:21:03;;;;;;;47.58;14.95;;;-3.60;99.90;;;;;;4995927;28;20026;-89
2022/12/12 09:23:29;;;;;;;42.53;12.57;;;-3.60;99.90;;;;;;4994573;28;20034;-89
2022/12/12 09:25:55;;;;;;;33.80;10.75;;;-3.50;99.90;;;;;;4994410;28;20058;-89
2022/12/12 09:28:23;;;;;;;34.75;11.65;;;-3.50;99.90;;;;;;4994266;28;20034;-88
2022/12/12 09:30:49;;;;;;;33.60;11.40;;;-3.50;99.90;;;;;;4994603;28;20026;-91
2022/12/12 09:33:16;;;;;;;41.42;12.40;;;-3.40;99.90;;;;;;4995257;28;20126;-91
2022/12/12 09:35:42;;;;;;;39.85;12.10;;;-3.40;99.90;;;;;;4996321;28;20054;-90
2022/12/12 09:38:09;;;;;;;35.92;10.73;;;-3.30;99.90;;;;;;4994172;28;20033;-91
2022/12/12 09:40:40;;;;;;;31.80;10.68;;;-3.20;99.90;;;;;;4994510;28;20057;-89
2022/12/12 09:43:06;;;;;;;36.65;11.13;;;-3.20;99.90;;;;;;4995192;28;20026;-88
2022/12/12 09:45:35;;;;;;;32.70;10.57;;;-3.10;99.90;;;;;;4994526;28;20026;-91
2022/12/12 09:48:03;;;;;;;28.98;9.18;;;-3.00;99.90;;;;;;4996794;28;20022;-91
2022/12/12 09:50:33;;;;;;;29.70;9.55;;;-2.90;99.90;;;;;;4998847;28;20025;-91
2022/12/12 09:53:13;;;;;;;29.73;9.95;;;-2.70;99.90;;;;;;5011461;28;20097;-91
2022/12/12 09:55:57;;;;;;;25.23;8.27;;;-2.40;99.90;;;;;;5016824;28;20045;-89
2022/12/12 09:58:29;;;;;;;31.25;8.75;;;-2.10;99.90;;;;;;4994836;28;20050;-91
2022/12/12 10:00:59;;;;;;;29.67;9.05;;;-1.80;99.90;;;;;;4994791;28;20030;-92
2022/12/12 10:03:50;;;;;;;31.17;10.43;;;-1.50;99.90;;;;;;4994251;28;20027;-94
2022/12/12 10:06:17;;;;;;;34.22;10.52;;;-1.50;99.90;;;;;;4991595;28;20085;-94
2022/12/12 10:08:56;;;;;;;32.97;11.15;;;-1.40;99.90;;;;;;4994624;28;20031;-95
2022/12/12 10:11:50;;;;;;;26.67;9.20;;;-1.40;99.90;;;;;;4993034;28;20026;-93
2022/12/12 10:14:49;;;;;;;30.70;8.77;;;-1.40;99.90;;;;;;4995025;28;20034;-93
2022/12/12 10:17:23;;;;;;;33.42;11.02;;;-1.60;99.90;;;;;;4999573;28;20026;-92
2022/12/12 10:19:58;;;;;;;30.45;9.70;;;-1.60;99.90;;;;;;5000980;28;20034;-91
2022/12/12 10:22:38;;;;;;;31.33;10.20;;;-1.70;99.90;;;;;;5000583;28;20033;-94
2022/12/12 10:25:17;;;;;;;29.15;10.45;;;-1.90;99.90;;;;;;4998620;28;20046;-94
2022/12/12 10:27:43;;;;;;;27.95;9.50;;;-2.00;99.90;;;;;;4997656;28;20034;-94
2022/12/12 10:30:17;;;;;;;30.13;10.55;;;-2.20;99.90;;;;;;4997911;28;20041;-91
2022/12/12 10:33:21;;;;;;;26.20;9.52;;;-2.20;99.90;;;;;;4995137;28;20042;-91
2022/12/12 10:36:18;;;;;;;27.48;9.27;;;-2.20;99.90;;;;;;4991101;28;20034;-91
2022/12/12 10:39:10;;;;;;;40.10;11.52;;;-2.20;99.90;;;;;;4993434;28;20025;-92
2022/12/12 10:42:26;;;;;;;36.70;11.27;;;-2.20;99.90;;;;;;4976077;28;20114;-92
2022/12/12 10:45:22;;;;;;;31.15;9.77;;;-2.30;99.90;;;;;;4976032;28;20027;-92
2022/12/12 10:47:49;;;;;;;37.45;12.77;;;-2.40;99.90;;;;;;4994004;28;20444;-91
2022/12/12 10:50:39;;;;;;;32.75;11.45;;;-2.40;99.90;;;;;;4993679;28;20038;-92
2022/12/12 10:53:07;;;;;;;36.30;11.65;;;-2.40;99.90;;;;;;4991797;28;20034;-91
2022/12/12 10:55:45;;;;;;;33.42;10.85;;;-2.40;99.90;;;;;;4994495;28;20472;-91
2022/12/12 10:58:12;;;;;;;32.97;10.73;;;-2.40;99.90;;;;;;4992782;28;20476;-90
2022/12/12 11:00:41;;;;;;;29.90;10.52;;;-2.40;99.90;;;;;;4991366;28;20036;-92
2022/12/12 11:03:20;;;;;;;31.23;10.57;;;-2.30;99.90;;;;;;4992244;28;20034;-91
2022/12/12 11:05:49;;;;;;;31.02;10.73;;;-2.30;99.90;;;;;;4993979;28;20049;-91
2022/12/12 11:08:24;;;;;;;31.05;10.73;;;-2.30;99.90;;;;;;5000843;28;20039;-91
2022/12/12 11:11:38;;;;;;;30.15;10.57;;;-2.30;99.90;;;;;;4992620;28;20014;-92
2022/12/12 11:14:26;;;;;;;33.58;11.20;;;-2.30;99.90;;;;;;4941466;29;20088;-92
2022/12/12 11:16:52;;;;;;;36.35;10.90;;;-2.30;99.90;;;;;;4929377;29;20039;-92
2022/12/12 11:19:19;;;;;;;30.25;10.27;;;-2.30;99.90;;;;;;4925511;29;20527;-91
2022/12/12 11:21:46;;;;;;;34.15;10.75;;;-2.30;99.90;;;;;;4954674;29;20493;-91
2022/12/12 11:24:17;;;;;;;40.30;12.05;;;-2.30;99.90;;;;;;4952919;29;20030;-91
2022/12/12 11:26:56;;;;;;;36.70;11.90;;;-2.30;99.90;;;;;;4939649;29;20030;-91
2022/12/12 11:29:27;;;;;;;38.70;12.65;;;-2.20;99.90;;;;;;4930867;29;20036;-93
2022/12/12 11:31:53;;;;;;;35.53;12.55;;;-2.20;99.90;;;;;;4930622;29;20082;-93
2022/12/12 11:34:21;;;;;;;41.33;12.32;;;-2.20;99.90;;;;;;4935319;29;20060;-94
2022/12/12 11:36:47;;;;;;;39.92;13.32;;;-2.10;99.90;;;;;;4938373;29;20032;-95
2022/12/12 11:39:22;;;;;;;30.55;10.55;;;-2.10;99.90;;;;;;4932277;29;20119;-94
2022/12/12 11:42:03;;;;;;;31.83;9.82;;;-2.10;99.90;;;;;;4931800;29;20035;-94
2022/12/12 11:44:33;;;;;;;27.67;9.07;;;-2.00;99.90;;;;;;4938335;29;20114;-92
2022/12/12 11:47:25;;;;;;;31.52;9.73;;;-2.00;99.90;;;;;;4957214;28;20126;-94
2022/12/12 11:49:57;;;;;;;27.60;9.43;;;-1.90;99.90;;;;;;4994387;28;20476;-94
2022/12/12 11:52:28;;;;;;;29.77;9.85;;;-1.80;99.90;;;;;;4994849;28;20031;-94
2022/12/12 11:54:54;;;;;;;29.42;9.32;;;-1.70;99.90;;;;;;4993639;28;20888;-93
2022/12/12 11:57:38;;;;;;;30.00;11.32;;;-1.70;99.90;;;;;;4993360;28;20031;-93
2022/12/12 12:00:08;;;;;;;29.20;9.68;;;-1.60;99.90;;;;;;4993893;28;20054;-91
2022/12/12 12:03:21;;;;;;;31.02;9.95;;;-1.60;99.90;;;;;;4991228;28;20478;-94
2022/12/12 12:06:12;;;;;;;28.33;9.30;;;-1.60;99.90;;;;;;4990943;28;20061;-94
2022/12/12 12:09:11;;;;;;;25.95;9.40;;;-1.60;99.90;;;;;;4991832;28;20280;-94
2022/12/12 12:12:10;;;;;;;25.50;8.55;;;-1.60;99.90;;;;;;4991770;28;20053;-92
2022/12/12 12:14:58;;;;;;;26.02;8.25;;;-1.60;99.90;;;;;;4992867;28;20038;-94
2022/12/12 12:17:39;;;;;;;26.20;8.18;;;-1.60;99.90;;;;;;4993748;28;20042;-94
2022/12/12 12:20:16;;;;;;;23.70;8.15;;;-1.50;99.90;;;;;;4990982;28;20023;-94
2022/12/12 12:23:00;;;;;;;25.67;8.07;;;-1.50;99.90;;;;;;4995026;28;20034;-95
2022/12/12 12:25:48;;;;;;;23.95;8.25;;;-1.40;99.90;;;;;;4994179;28;20161;-95
2022/12/12 12:28:32;;;;;;;26.05;8.95;;;-1.30;99.90;;;;;;4992132;28;20038;-92
2022/12/12 12:31:07;;;;;;;28.02;8.00;;;-1.20;99.90;;;;;;4993806;28;20042;-94
2022/12/12 12:34:15;;;;;;;28.40;9.90;;;-1.10;99.90;;;;;;4993467;28;20555;-95
2022/12/12 12:36:53;;;;;;;26.08;8.63;;;-1.00;99.90;;;;;;4994252;28;20030;-94
2022/12/12 12:39:56;;;;;;;28.30;9.60;;;-0.90;99.90;;;;;;4993874;28;20030;-94
2022/12/12 12:42:40;;;;;;;25.90;8.93;;;-0.80;99.90;;;;;;4992373;28;20026;-92
2022/12/12 12:45:39;;;;;;;23.73;7.85;;;-0.60;99.90;;;;;;4992875;28;20031;-94
2022/12/12 12:48:34;;;;;;;27.05;9.02;;;-0.50;99.90;;;;;;4993506;28;20030;-95
2022/12/12 12:51:19;;;;;;;27.30;8.75;;;-0.30;99.90;;;;;;4993587;28;20037;-94
2022/12/12 12:54:05;;;;;;;24.83;8.85;;;-0.20;99.90;;;;;;4994858;28;20050;-95
2022/12/12 12:56:36;;;;;;;27.65;10.02;;;-0.10;99.90;;;;;;4995051;28;20444;-95
2022/12/12 12:59:10;;;;;;;26.77;8.98;;;0.00;99.90;;;;;;4998235;28;20030;-95
2022/12/12 13:01:46;;;;;;;26.70;7.75;;;0.10;99.90;;;;;;4997217;28;20034;-95
2022/12/12 13:04:43;;;;;;;31.30;8.50;;;0.20;99.90;;;;;;4996546;28;20049;-95
2022/12/12 13:07:21;;;;;;;94.20;23.13;;;0.20;99.90;;;;;;4995285;28;20037;-95
2022/12/12 13:10:00;;;;;;;50.95;15.40;;;0.20;99.90;;;;;;5000717;28;20472;-94
2022/12/12 13:12:34;;;;;;;42.80;12.90;;;0.10;99.90;;;;;;5007333;28;20026;-94
2022/12/12 13:15:13;;;;;;;28.65;9.98;;;0.10;99.90;;;;;;5013529;28;20034;-96
2022/12/12 13:17:46;;;;;;;26.05;9.65;;;0.10;99.90;;;;;;5013437;28;20043;-95